Time;durP1;ratioP1;P1;durP2;ratioP2;P2;SDS_P1;SDS_P2;PMS_P1;PMS_P2;Temp;Humidity;BMP_temperature;BMP_pressure;BME280_temperature;BME280_humidity;BME280_pressure;Samples;Min_cycle;Max_cycle;Signal;HPM_P1;HPM_P2
2022/12/17 13:09:16;;;;;;;12.55;6.28;;;15.90;59.80;;;;;;10428600;28;20502;-56
2022/12/17 13:15:06;;;;;;;11.00;6.30;;;16.00;59.80;;;;;;10419584;28;20172;-56
2022/12/17 13:20:23;;;;;;;12.25;7.55;;;16.10;59.40;;;;;;10442119;28;20033;-56
2022/12/17 13:25:24;;;;;;;8.73;5.97;;;16.10;59.10;;;;;;10451680;28;20803;-56
2022/12/17 13:30:36;;;;;;;11.00;5.78;;;16.20;58.60;;;;;;10440313;28;20036;-56
2022/12/17 13:36:23;;;;;;;11.10;6.18;;;16.20;58.30;;;;;;10438544;28;20071;-53
2022/12/17 13:41:34;;;;;;;15.20;6.88;;;16.20;58.60;;;;;;10440143;28;20038;-56
2022/12/17 13:46:46;;;;;;;14.80;6.72;;;16.10;59.70;;;;;;10433641;28;20064;-55
2022/12/17 13:51:47;;;;;;;15.18;7.68;;;16.00;59.10;;;;;;10448816;28;20028;-54
2022/12/17 13:56:48;;;;;;;13.40;6.03;;;16.10;58.60;;;;;;10446317;28;20091;-56
2022/12/17 14:01:52;;;;;;;13.70;6.90;;;16.10;58.60;;;;;;10447244;28;20118;-55
2022/12/17 14:06:58;;;;;;;8.88;5.85;;;16.10;58.70;;;;;;10417004;28;20017;-55
2022/12/17 14:12:22;;;;;;;7.85;5.72;;;16.10;58.40;;;;;;10446365;28;20087;-56
2022/12/17 14:17:28;;;;;;;10.20;6.38;;;16.20;58.20;;;;;;10410405;28;20067;-56
2022/12/17 14:22:52;;;;;;;7.72;5.40;;;16.10;58.10;;;;;;10407615;28;20009;-56
2022/12/17 14:28:05;;;;;;;8.35;5.03;;;16.10;58.30;;;;;;10437622;28;20025;-56
2022/12/17 14:33:31;;;;;;;10.63;5.53;;;16.10;58.20;;;;;;10422571;28;20017;-55
2022/12/17 14:38:32;;;;;;;7.95;5.68;;;16.10;58.20;;;;;;10449664;28;20033;-55
2022/12/17 14:43:33;;;;;;;9.63;6.40;;;16.10;58.00;;;;;;10392329;28;20212;-55
2022/12/17 14:54:12;;;;;;;8.93;5.90;;;16.10;57.70;;;;;;10406795;28;20041;-55
2022/12/17 14:59:28;;;;;;;;;;;16.10;57.70;;;;;;10407915;28;20032;-56
2022/12/17 15:04:31;;;;;;;11.30;6.13;;;16.10;57.60;;;;;;10444813;28;20019;-56
2022/12/17 15:09:39;;;;;;;9.38;5.75;;;16.10;58.20;;;;;;10406827;28;20668;-55
2022/12/17 15:14:40;;;;;;;9.52;5.93;;;16.10;57.60;;;;;;10405841;28;20028;-55
2022/12/17 15:19:40;;;;;;;9.50;5.05;;;16.10;57.60;;;;;;10405334;28;20030;-55
2022/12/17 15:24:43;;;;;;;8.55;4.80;;;16.10;57.70;;;;;;10388725;28;20072;-56
2022/12/17 15:29:44;;;;;;;7.13;5.13;;;16.10;58.20;;;;;;10407586;28;20018;-55
2022/12/17 15:34:46;;;;;;;8.40;4.63;;;16.10;57.40;;;;;;10425309;28;20027;-55
2022/12/17 15:39:46;;;;;;;7.40;4.68;;;16.10;57.30;;;;;;10410344;28;20025;-55
2022/12/17 15:44:47;;;;;;;6.78;4.65;;;16.20;57.00;;;;;;10404215;28;20107;-56
2022/12/17 15:49:48;;;;;;;9.70;5.35;;;16.20;57.00;;;;;;10405274;28;20113;-56
2022/12/17 15:54:48;;;;;;;8.60;6.20;;;16.20;57.00;;;;;;10403832;28;20627;-56
2022/12/17 15:59:50;;;;;;;6.82;5.05;;;16.20;57.50;;;;;;10404306;28;20053;-54
2022/12/17 16:04:51;;;;;;;7.82;4.82;;;16.20;56.90;;;;;;10443572;28;20468;-55
2022/12/17 16:09:52;;;;;;;6.60;4.15;;;16.20;56.90;;;;;;10444588;28;20041;-55
2022/12/17 16:14:52;;;;;;;7.47;4.85;;;16.20;56.80;;;;;;10411924;28;20122;-55
2022/12/17 16:19:53;;;;;;;6.03;4.60;;;16.20;56.80;;;;;;10401955;28;20087;-55
2022/12/17 16:24:54;;;;;;;8.68;5.15;;;16.20;56.80;;;;;;10401116;28;20049;-55
2022/12/17 16:29:54;;;;;;;6.18;4.50;;;16.10;56.70;;;;;;10403975;28;20045;-56
2022/12/17 16:34:55;;;;;;;7.35;3.40;;;16.20;56.80;;;;;;10401464;28;20092;-55
2022/12/17 16:39:56;;;;;;;6.15;4.60;;;16.20;56.70;;;;;;10401120;28;20033;-56
2022/12/17 16:44:57;;;;;;;6.32;4.60;;;16.20;56.60;;;;;;10384411;28;20052;-56
2022/12/17 16:49:57;;;;;;;6.53;4.53;;;16.20;56.60;;;;;;10400981;28;20049;-56
2022/12/17 16:54:58;;;;;;;5.00;3.47;;;16.20;56.50;;;;;;10401004;28;20064;-55
2022/12/17 16:59:59;;;;;;;7.20;4.65;;;16.30;56.40;;;;;;10428020;28;20144;-55
2022/12/17 17:04:59;;;;;;;7.25;4.45;;;16.20;56.40;;;;;;10441806;28;20024;-56
2022/12/17 17:10:00;;;;;;;6.97;3.95;;;16.20;56.40;;;;;;10442770;28;20131;-54
2022/12/17 17:15:01;;;;;;;6.82;4.35;;;16.20;56.40;;;;;;10441328;28;20429;-56
2022/12/17 17:20:01;;;;;;;5.35;3.97;;;16.20;56.30;;;;;;10441167;28;20104;-56
2022/12/17 17:25:03;;;;;;;6.72;5.18;;;16.20;56.30;;;;;;10425009;28;20028;-56
2022/12/17 17:30:05;;;;;;;7.07;4.32;;;16.20;56.30;;;;;;10431995;28;20022;-56
2022/12/17 17:35:06;;;;;;;5.70;3.88;;;16.10;56.20;;;;;;10399973;28;20246;-57
2022/12/17 17:40:08;;;;;;;5.93;4.70;;;16.10;56.60;;;;;;10400857;28;20034;-56
2022/12/17 17:45:09;;;;;;;7.28;4.35;;;16.20;56.10;;;;;;10401333;28;20048;-56
2022/12/17 17:50:09;;;;;;;4.45;3.42;;;16.30;56.00;;;;;;10428752;28;20028;-56
2022/12/17 17:55:10;;;;;;;5.80;3.80;;;16.30;56.00;;;;;;10442412;28;20029;-56
2022/12/17 18:00:11;;;;;;;5.72;4.13;;;16.20;56.00;;;;;;10442445;28;20882;-56
2022/12/17 18:05:12;;;;;;;5.80;3.30;;;16.20;56.00;;;;;;10445445;28;20112;-56
2022/12/17 18:10:13;;;;;;;6.85;4.00;;;16.20;56.00;;;;;;10415467;28;20078;-55
2022/12/17 18:15:13;;;;;;;6.53;4.60;;;16.20;56.10;;;;;;10407863;28;20104;-56
2022/12/17 18:20:15;;;;;;;5.57;3.95;;;16.20;56.10;;;;;;10406506;28;20462;-56
2022/12/17 18:25:16;;;;;;;5.78;4.05;;;16.20;56.80;;;;;;10406519;28;20021;-55
2022/12/17 18:30:17;;;;;;;5.00;3.80;;;16.20;55.90;;;;;;10408141;28;20112;-57
2022/12/17 18:35:18;;;;;;;7.07;4.32;;;16.30;55.80;;;;;;10406281;28;20027;-55
2022/12/17 18:40:18;;;;;;;5.43;4.07;;;16.30;55.70;;;;;;10406838;28;20103;-56
2022/12/17 18:45:19;;;;;;;5.18;3.78;;;16.20;55.80;;;;;;10405169;28;20257;-55
2022/12/17 18:50:20;;;;;;;5.43;4.13;;;16.20;55.90;;;;;;10405646;28;20061;-55
2022/12/17 18:55:20;;;;;;;7.35;4.05;;;16.20;55.90;;;;;;10425722;28;20056;-55
2022/12/17 19:00:21;;;;;;;8.02;4.82;;;16.10;56.10;;;;;;10450812;28;20024;-56
2022/12/17 19:05:22;;;;;;;6.80;4.63;;;16.10;55.80;;;;;;10436849;28;20100;-57
2022/12/17 19:10:22;;;;;;;6.80;4.25;;;16.10;55.70;;;;;;10423071;28;20025;-57
2022/12/17 19:15:23;;;;;;;10.35;4.72;;;16.10;55.80;;;;;;10435900;28;20111;-54
2022/12/17 19:20:23;;;;;;;6.25;4.43;;;16.20;55.80;;;;;;10433788;28;20039;-56
2022/12/17 19:25:24;;;;;;;6.47;4.57;;;16.30;55.70;;;;;;10439316;28;20099;-57
2022/12/17 19:30:25;;;;;;;8.35;5.78;;;16.30;55.70;;;;;;10430581;28;20440;-57
2022/12/17 19:35:25;;;;;;;8.23;4.72;;;16.20;55.90;;;;;;10444144;28;20052;-55
2022/12/17 19:40:26;;;;;;;9.68;4.65;;;16.20;56.00;;;;;;10442605;28;20076;-55
2022/12/17 19:45:27;;;;;;;7.35;5.05;;;16.30;55.90;;;;;;10432139;28;20049;-55
2022/12/17 19:50:27;;;;;;;7.47;4.45;;;16.30;55.70;;;;;;10420706;28;20121;-55
2022/12/17 19:55:28;;;;;;;7.82;5.07;;;16.30;56.30;;;;;;10423295;28;20032;-55
2022/12/17 20:00:29;;;;;;;5.78;4.15;;;16.30;55.40;;;;;;10421487;28;20700;-53
2022/12/17 20:05:29;;;;;;;6.50;4.47;;;16.30;55.40;;;;;;10428921;28;20068;-56
2022/12/17 20:10:32;;;;;;;6.88;4.10;;;16.40;55.30;;;;;;10434398;28;20104;-56
2022/12/17 20:15:33;;;;;;;5.97;4.25;;;16.40;55.10;;;;;;10446640;28;20224;-56
2022/12/17 20:20:33;;;;;;;5.07;3.90;;;16.40;55.00;;;;;;10445398;28;20124;-55
2022/12/17 20:25:34;;;;;;;6.15;3.78;;;16.40;55.10;;;;;;10444880;28;20101;-56
2022/12/17 20:30:39;;;;;;;7.05;4.95;;;16.50;54.90;;;;;;10404180;28;20030;-57
2022/12/17 20:35:40;;;;;;;7.25;4.45;;;16.40;55.00;;;;;;10432316;28;20492;-55
2022/12/17 20:40:41;;;;;;;7.28;5.15;;;16.40;55.10;;;;;;10445457;28;20107;-55
2022/12/17 20:45:54;;;;;;;7.35;4.38;;;16.40;55.00;;;;;;10445539;28;20585;-55
2022/12/17 20:50:54;;;;;;;6.43;3.95;;;16.30;55.00;;;;;;10445798;28;20029;-55
2022/12/17 20:56:05;;;;;;;5.50;4.03;;;16.30;55.00;;;;;;10445262;28;20202;-55
2022/12/17 21:01:17;;;;;;;6.18;4.07;;;16.40;54.80;;;;;;10419225;28;20576;-55
2022/12/17 21:06:20;;;;;;;5.13;3.95;;;16.40;54.60;;;;;;10432128;28;20055;-54
2022/12/17 21:11:24;;;;;;;5.43;3.75;;;16.50;54.50;;;;;;10443066;28;20175;-56
2022/12/17 21:16:28;;;;;;;6.82;4.63;;;16.40;54.40;;;;;;10387544;28;20377;-56
2022/12/17 21:21:33;;;;;;;6.82;4.07;;;16.40;54.50;;;;;;10410224;28;20431;-54
2022/12/17 21:26:36;;;;;;;7.53;5.13;;;16.40;54.50;;;;;;10437984;28;20384;-55
2022/12/17 21:31:49;;;;;;;5.00;3.78;;;16.40;54.50;;;;;;10418669;28;20064;-55
2022/12/17 21:36:50;;;;;;;5.53;3.88;;;16.40;54.50;;;;;;10387119;28;20412;-54
2022/12/17 21:47:10;;;;;;;5.32;3.60;;;16.40;54.40;;;;;;10423093;28;20493;-56
2022/12/17 21:52:11;;;;;;;5.78;4.05;;;16.40;54.30;;;;;;10411466;28;20116;-55
2022/12/17 21:57:11;;;;;;;6.53;4.18;;;16.40;54.30;;;;;;10410727;28;20346;-56
2022/12/17 22:02:12;;;;;;;6.03;4.00;;;16.40;54.20;;;;;;10445922;28;20033;-56
2022/12/17 22:07:13;;;;;;;5.60;4.07;;;16.30;54.90;;;;;;10451578;28;20067;-56
2022/12/17 22:17:33;;;;;;;6.57;4.35;;;16.40;54.20;;;;;;10451551;28;20054;-54
2022/12/17 22:22:33;;;;;;;4.80;3.28;;;16.40;54.10;;;;;;10452134;28;20368;-55
2022/12/17 22:27:34;;;;;;;5.97;4.28;;;16.40;54.10;;;;;;10450874;28;20018;-56
2022/12/17 22:37:54;;;;;;;6.80;4.33;;;16.40;54.00;;;;;;10431990;28;20645;-54
2022/12/17 22:48:14;;;;;;;6.13;4.33;;;16.30;54.20;;;;;;10413187;28;20049;-56
2022/12/17 22:53:16;;;;;;;6.25;4.07;;;16.40;54.00;;;;;;10446063;28;20102;-57
2022/12/17 22:58:17;;;;;;;7.57;4.95;;;16.50;54.00;;;;;;10437478;28;20108;-55
2022/12/17 23:03:18;;;;;;;6.35;4.32;;;16.50;53.90;;;;;;10447038;28;20024;-54
2022/12/17 23:08:18;;;;;;;5.07;3.65;;;16.40;53.80;;;;;;10437960;28;20112;-56
2022/12/17 23:13:19;;;;;;;5.47;4.22;;;16.50;53.80;;;;;;10450367;28;20227;-59
2022/12/17 23:18:20;;;;;;;7.18;4.38;;;16.40;53.80;;;;;;10429199;28;20831;-56
2022/12/17 23:23:21;;;;;;;5.35;4.13;;;16.40;53.80;;;;;;10391092;28;20067;-55
2022/12/17 23:28:21;;;;;;;6.28;3.88;;;16.50;53.80;;;;;;10407442;28;20041;-56
2022/12/17 23:33:22;;;;;;;6.47;4.57;;;16.50;53.70;;;;;;10422042;28;20675;-56
2022/12/17 23:38:23;;;;;;;6.15;4.00;;;16.50;53.60;;;;;;10422052;28;20108;-55
2022/12/17 23:43:23;;;;;;;5.63;4.50;;;16.50;53.60;;;;;;10447311;28;20021;-56
2022/12/17 23:48:29;;;;;;;5.30;3.97;;;16.50;53.70;;;;;;10448367;28;20072;-55
2022/12/17 23:53:32;;;;;;;6.32;4.07;;;16.50;53.70;;;;;;10418690;28;20034;-55
2022/12/17 23:58:35;;;;;;;4.78;4.10;;;16.40;53.70;;;;;;10407324;28;20029;-56
